sensor_id;sensor_type;location;lat;lon;timestamp;pressure;altitude;pressure_sealevel;temperature;humidity
21730;BME280;11027;51.030;13.812;2023-08-30T00:00:04;99390.63;;;14.35;100.00
21730;BME280;11027;51.030;13.812;2023-08-30T00:02:29;99387.28;;;14.33;100.00
21730;BME280;11027;51.030;13.812;2023-08-30T00:04:58;99396.09;;;14.35;100.00
21730;BME280;11027;51.030;13.812;2023-08-30T00:07:24;99404.47;;;14.40;100.00
21730;BME280;11027;51.030;13.812;2023-08-30T00:09:49;99414.16;;;14.43;100.00
21730;BME280;11027;51.030;13.812;2023-08-30T00:12:15;99418.78;;;14.42;100.00
21730;BME280;11027;51.030;13.812;2023-08-30T00:14:40;99416.03;;;14.42;100.00
21730;BME280;11027;51.030;13.812;2023-08-30T00:17:06;99412.69;;;14.40;100.00
21730;BME280;11027;51.030;13.812;2023-08-30T00:19:31;99412.09;;;14.38;100.00
21730;BME280;11027;51.030;13.812;2023-08-30T00:21:57;99409.97;;;14.40;100.00
21730;BME280;11027;51.030;13.812;2023-08-30T00:24:22;99414.38;;;14.41;100.00
21730;BME280;11027;51.030;13.812;2023-08-30T00:26:47;99419.66;;;14.43;100.00
21730;BME280;11027;51.030;13.812;2023-08-30T00:29:13;99420.47;;;14.43;100.00
21730;BME280;11027;51.030;13.812;2023-08-30T00:31:38;99416.28;;;14.40;100.00
21730;BME280;11027;51.030;13.812;2023-08-30T00:34:03;99420.06;;;14.46;100.00
21730;BME280;11027;51.030;13.812;2023-08-30T00:36:29;99420.66;;;14.48;100.00
21730;BME280;11027;51.030;13.812;2023-08-30T00:38:54;99420.88;;;14.47;100.00
21730;BME280;11027;51.030;13.812;2023-08-30T00:41:19;99429.75;;;14.42;100.00
21730;BME280;11027;51.030;13.812;2023-08-30T00:43:45;99420.91;;;14.40;100.00
21730;BME280;11027;51.030;13.812;2023-08-30T00:46:10;99429.38;;;14.38;100.00
21730;BME280;11027;51.030;13.812;2023-08-30T00:48:36;99424.72;;;14.39;100.00
21730;BME280;11027;51.030;13.812;2023-08-30T00:51:01;99430.22;;;14.39;100.00
21730;BME280;11027;51.030;13.812;2023-08-30T00:53:27;99433.56;;;14.41;100.00
21730;BME280;11027;51.030;13.812;2023-08-30T00:55:52;99431.44;;;14.43;100.00
21730;BME280;11027;51.030;13.812;2023-08-30T00:58:17;99437.31;;;14.47;100.00
21730;BME280;11027;51.030;13.812;2023-08-30T01:00:43;99443.84;;;14.46;100.00
21730;BME280;11027;51.030;13.812;2023-08-30T01:03:08;99434.78;;;14.45;100.00
21730;BME280;11027;51.030;13.812;2023-08-30T01:05:34;99435.88;;;14.44;100.00
21730;BME280;11027;51.030;13.812;2023-08-30T01:07:59;99438.16;;;14.47;100.00
21730;BME280;11027;51.030;13.812;2023-08-30T01:10:59;99431.84;;;14.47;100.00
21730;BME280;11027;51.030;13.812;2023-08-30T01:13:21;99426.34;;;14.47;100.00
21730;BME280;11027;51.030;13.812;2023-08-30T01:15:47;99420.66;;;14.48;100.00
21730;BME280;11027;51.030;13.812;2023-08-30T01:18:17;99427.19;;;14.47;100.00
21730;BME280;11027;51.030;13.812;2023-08-30T01:20:44;99428.88;;;14.48;100.00
21730;BME280;11027;51.030;13.812;2023-08-30T01:23:19;99425.47;;;14.53;100.00
21730;BME280;11027;51.030;13.812;2023-08-30T01:26:23;99426.28;;;14.53;100.00
21730;BME280;11027;51.030;13.812;2023-08-30T01:28:39;99420.19;;;14.51;100.00
21730;BME280;11027;51.030;13.812;2023-08-30T01:31:06;99412.44;;;14.48;100.00
21730;BME280;11027;51.030;13.812;2023-08-30T01:33:32;99413.88;;;14.51;100.00
21730;BME280;11027;51.030;13.812;2023-08-30T01:35:58;99422.94;;;14.51;100.00
21730;BME280;11027;51.030;13.812;2023-08-30T01:38:26;99419.31;;;14.57;100.00
21730;BME280;11027;51.030;13.812;2023-08-30T01:40:53;99410.19;;;14.64;100.00
21730;BME280;11027;51.030;13.812;2023-08-30T01:43:20;99406.16;;;14.66;100.00
21730;BME280;11027;51.030;13.812;2023-08-30T01:45:46;99397.59;;;14.63;100.00
21730;BME280;11027;51.030;13.812;2023-08-30T01:48:14;99400.16;;;14.57;100.00
21730;BME280;11027;51.030;13.812;2023-08-30T01:50:41;99392.56;;;14.53;100.00
21730;BME280;11027;51.030;13.812;2023-08-30T01:53:08;99393.00;;;14.50;100.00
21730;BME280;11027;51.030;13.812;2023-08-30T01:55:36;99394.00;;;14.55;100.00
21730;BME280;11027;51.030;13.812;2023-08-30T01:58:02;99391.28;;;14.55;100.00
21730;BME280;11027;51.030;13.812;2023-08-30T02:00:27;99387.28;;;14.58;100.00
21730;BME280;11027;51.030;13.812;2023-08-30T02:02:52;99390.00;;;14.58;100.00
21730;BME280;11027;51.030;13.812;2023-08-30T02:05:18;99390.25;;;14.56;100.00
21730;BME280;11027;51.030;13.812;2023-08-30T02:07:55;99381.63;;;14.53;100.00
21730;BME280;11027;51.030;13.812;2023-08-30T02:10:24;99383.06;;;14.55;100.00
21730;BME280;11027;51.030;13.812;2023-08-30T02:12:54;99376.09;;;14.59;100.00
21730;BME280;11027;51.030;13.812;2023-08-30T02:15:20;99390.41;;;14.62;100.00
21730;BME280;11027;51.030;13.812;2023-08-30T02:17:48;99387.66;;;14.62;100.00
21730;BME280;11027;51.030;13.812;2023-08-30T02:20:13;99395.88;;;14.62;100.00
21730;BME280;11027;51.030;13.812;2023-08-30T02:22:38;99401.38;;;14.62;100.00
21730;BME280;11027;51.030;13.812;2023-08-30T02:25:04;99397.78;;;14.61;100.00
21730;BME280;11027;51.030;13.812;2023-08-30T02:27:31;99400.53;;;14.61;100.00
21730;BME280;11027;51.030;13.812;2023-08-30T02:29:56;99404.09;;;14.62;100.00
21730;BME280;11027;51.030;13.812;2023-08-30T02:32:21;99407.31;;;14.58;100.00
21730;BME280;11027;51.030;13.812;2023-08-30T02:34:50;99408.97;;;14.59;100.00
21730;BME280;11027;51.030;13.812;2023-08-30T02:37:15;99408.91;;;14.66;100.00
21730;BME280;11027;51.030;13.812;2023-08-30T02:39:40;99407.63;;;14.69;100.00
21730;BME280;11027;51.030;13.812;2023-08-30T02:42:05;99406.16;;;14.66;100.00
21730;BME280;11027;51.030;13.812;2023-08-30T02:44:31;99402.19;;;14.62;100.00
21730;BME280;11027;51.030;13.812;2023-08-30T02:46:56;99404.72;;;14.64;100.00
21730;BME280;11027;51.030;13.812;2023-08-30T02:49:21;99404.09;;;14.62;100.00
21730;BME280;11027;51.030;13.812;2023-08-30T02:51:47;99405.84;;;14.56;100.00
21730;BME280;11027;51.030;13.812;2023-08-30T02:54:12;99396.97;;;14.54;100.00
21730;BME280;11027;51.030;13.812;2023-08-30T02:56:38;99412.38;;;14.55;100.00
21730;BME280;11027;51.030;13.812;2023-08-30T02:59:03;99404.78;;;14.57;100.00
21730;BME280;11027;51.030;13.812;2023-08-30T03:01:29;99399.72;;;14.60;100.00
21730;BME280;11027;51.030;13.812;2023-08-30T03:03:54;99406.41;;;14.65;100.00
21730;BME280;11027;51.030;13.812;2023-08-30T03:06:19;99416.69;;;14.69;100.00
21730;BME280;11027;51.030;13.812;2023-08-30T03:08:44;99416.09;;;14.67;100.00
21730;BME280;11027;51.030;13.812;2023-08-30T03:11:11;99408.97;;;14.59;100.00
21730;BME280;11027;51.030;13.812;2023-08-30T03:13:37;99415.34;;;14.53;100.00
21730;BME280;11027;51.030;13.812;2023-08-30T03:16:12;99417.47;;;14.51;100.00
21730;BME280;11027;51.030;13.812;2023-08-30T03:18:38;99411.97;;;14.51;100.00
21730;BME280;11027;51.030;13.812;2023-08-30T03:21:04;99412.19;;;14.50;100.00
21730;BME280;11027;51.030;13.812;2023-08-30T03:23:30;99414.09;;;14.49;100.00
21730;BME280;11027;51.030;13.812;2023-08-30T03:25:56;99413.19;;;14.55;100.00
21730;BME280;11027;51.030;13.812;2023-08-30T03:28:22;99412.81;;;14.58;100.00
21730;BME280;11027;51.030;13.812;2023-08-30T03:30:47;99408.38;;;14.57;100.00
21730;BME280;11027;51.030;13.812;2023-08-30T03:33:12;99406.72;;;14.56;100.00
21730;BME280;11027;51.030;13.812;2023-08-30T03:35:38;99409.84;;;14.53;100.00
21730;BME280;11027;51.030;13.812;2023-08-30T03:38:03;99411.38;;;14.49;100.00
21730;BME280;11027;51.030;13.812;2023-08-30T03:40:30;99414.94;;;14.50;100.00
21730;BME280;11027;51.030;13.812;2023-08-30T03:42:55;99420.06;;;14.46;100.00
21730;BME280;11027;51.030;13.812;2023-08-30T03:45:20;99419.44;;;14.44;100.00
21730;BME280;11027;51.030;13.812;2023-08-30T03:47:45;99410.75;;;14.47;100.00
21730;BME280;11027;51.030;13.812;2023-08-30T03:50:11;99408.47;;;14.44;100.00
21730;BME280;11027;51.030;13.812;2023-08-30T03:52:36;99409.53;;;14.43;100.00
21730;BME280;11027;51.030;13.812;2023-08-30T03:55:01;99407.81;;;14.42;100.00
21730;BME280;11027;51.030;13.812;2023-08-30T03:57:27;99411.25;;;14.37;100.00
21730;BME280;11027;51.030;13.812;2023-08-30T03:59:52;99407.06;;;14.35;100.00
21730;BME280;11027;51.030;13.812;2023-08-30T04:02:18;99404.47;;;14.40;100.00
21730;BME280;11027;51.030;13.812;2023-08-30T04:04:43;99412.03;;;14.45;100.00
21730;BME280;11027;51.030;13.812;2023-08-30T04:07:08;99409.09;;;14.46;100.00
21730;BME280;11027;51.030;13.812;2023-08-30T04:09:33;99418.34;;;14.45;100.00
21730;BME280;11027;51.030;13.812;2023-08-30T04:11:59;99424.66;;;14.46;100.00
21730;BME280;11027;51.030;13.812;2023-08-30T04:14:25;99426.16;;;14.48;100.00
21730;BME280;11027;51.030;13.812;2023-08-30T04:16:52;99422.94;;;14.51;100.00
21730;BME280;11027;51.030;13.812;2023-08-30T04:19:17;99411.97;;;14.51;100.00
21730;BME280;11027;51.030;13.812;2023-08-30T04:21:43;99408.19;;;14.52;100.00
21730;BME280;11027;51.030;13.812;2023-08-30T04:24:08;99405.66;;;14.51;100.00
21730;BME280;11027;51.030;13.812;2023-08-30T04:26:33;99406.97;;;14.48;100.00
21730;BME280;11027;51.030;13.812;2023-08-30T04:28:58;99409.09;;;14.46;100.00
21730;BME280;11027;51.030;13.812;2023-08-30T04:31:24;99411.22;;;14.44;100.00
21730;BME280;11027;51.030;13.812;2023-08-30T04:33:49;99404.44;;;14.47;100.00
21730;BME280;11027;51.030;13.812;2023-08-30T04:36:14;99409.84;;;14.53;100.00
21730;BME280;11027;51.030;13.812;2023-08-30T04:38:39;99413.19;;;14.55;100.00
21730;BME280;11027;51.030;13.812;2023-08-30T04:41:05;99409.44;;;14.56;100.00
21730;BME280;11027;51.030;13.812;2023-08-30T04:43:30;99414.06;;;14.56;99.59
21730;BME280;11027;51.030;13.812;2023-08-30T04:45:55;99418.28;;;14.58;99.36
21730;BME280;11027;51.030;13.812;2023-08-30T04:48:21;99417.38;;;14.65;99.28
21730;BME280;11027;51.030;13.812;2023-08-30T04:50:46;99419.66;;;14.68;99.04
21730;BME280;11027;51.030;13.812;2023-08-30T04:53:11;99425.31;;;14.73;98.78
21730;BME280;11027;51.030;13.812;2023-08-30T04:55:36;99427.59;;;14.76;98.99
21730;BME280;11027;51.030;13.812;2023-08-30T04:58:02;99431.13;;;14.83;98.74
21730;BME280;11027;51.030;13.812;2023-08-30T05:00:27;99434.25;;;14.87;98.41
21730;BME280;11027;51.030;13.812;2023-08-30T05:02:53;99428.50;;;14.88;98.28
21730;BME280;11027;51.030;13.812;2023-08-30T05:05:18;99435.28;;;14.86;97.88
21730;BME280;11027;51.030;13.812;2023-08-30T05:07:43;99437.81;;;14.87;97.90
21730;BME280;11027;51.030;13.812;2023-08-30T05:10:09;99442.00;;;14.90;97.89
21730;BME280;11027;51.030;13.812;2023-08-30T05:12:34;99439.03;;;14.91;97.53
21730;BME280;11027;51.030;13.812;2023-08-30T05:15:00;99435.06;;;14.87;97.74
21730;BME280;11027;51.030;13.812;2023-08-30T05:17:26;99434.47;;;14.85;97.56
21730;BME280;11027;51.030;13.812;2023-08-30T05:19:53;99436.59;;;14.83;97.39
21730;BME280;11027;51.030;13.812;2023-08-30T05:22:18;99431.56;;;14.80;97.22
21730;BME280;11027;51.030;13.812;2023-08-30T05:24:44;99433.25;;;14.81;97.45
21730;BME280;11027;51.030;13.812;2023-08-30T05:27:09;99429.19;;;14.84;97.61
21730;BME280;11027;51.030;13.812;2023-08-30T05:29:36;99427.28;;;14.84;97.21
21730;BME280;11027;51.030;13.812;2023-08-30T05:32:02;99429.38;;;14.89;97.45
21730;BME280;11027;51.030;13.812;2023-08-30T05:34:27;99436.09;;;14.93;96.96
21730;BME280;11027;51.030;13.812;2023-08-30T05:36:53;99435.84;;;14.94;96.85
21730;BME280;11027;51.030;13.812;2023-08-30T05:39:18;99435.63;;;14.96;96.61
21730;BME280;11027;51.030;13.812;2023-08-30T05:41:43;99434.91;;;15.00;96.50
21730;BME280;11027;51.030;13.812;2023-08-30T05:44:09;99435.09;;;15.06;96.25
21730;BME280;11027;51.030;13.812;2023-08-30T05:46:34;99432.50;;;15.11;96.33
21730;BME280;11027;51.030;13.812;2023-08-30T05:49:00;99438.63;;;15.13;95.89
21730;BME280;11027;51.030;13.812;2023-08-30T05:51:27;99432.50;;;15.11;95.71
21730;BME280;11027;51.030;13.812;2023-08-30T05:53:52;99436.69;;;15.13;95.50
21730;BME280;11027;51.030;13.812;2023-08-30T05:56:18;99427.78;;;15.18;95.68
21730;BME280;11027;51.030;13.812;2023-08-30T05:58:43;99423.38;;;15.17;94.40
21730;BME280;11027;51.030;13.812;2023-08-30T06:01:08;99429.06;;;15.15;94.40
21730;BME280;11027;51.030;13.812;2023-08-30T06:03:34;99427.03;;;15.11;93.72
21730;BME280;11027;51.030;13.812;2023-08-30T06:05:59;99423.44;;;15.10;93.37
21730;BME280;11027;51.030;13.812;2023-08-30T06:08:25;99423.81;;;15.14;93.65
21730;BME280;11027;51.030;13.812;2023-08-30T06:10:50;99426.47;;;15.20;93.75
21730;BME280;11027;51.030;13.812;2023-08-30T06:13:15;99424.72;;;15.26;93.22
21730;BME280;11027;51.030;13.812;2023-08-30T06:15:40;99424.28;;;15.29;92.90
21730;BME280;11027;51.030;13.812;2023-08-30T06:18:06;99421.28;;;15.31;92.70
21730;BME280;11027;51.030;13.812;2023-08-30T06:20:31;99420.63;;;15.35;91.95
21730;BME280;11027;51.030;13.812;2023-08-30T06:23:03;99433.47;;;15.35;91.63
21730;BME280;11027;51.030;13.812;2023-08-30T06:25:28;99435.38;;;15.34;91.62
21730;BME280;11027;51.030;13.812;2023-08-30T06:27:58;99424.63;;;15.33;91.26
21730;BME280;11027;51.030;13.812;2023-08-30T06:30:25;99429.91;;;15.34;91.46
21730;BME280;11027;51.030;13.812;2023-08-30T06:32:50;99424.56;;;15.39;91.40
21730;BME280;11027;51.030;13.812;2023-08-30T06:35:15;99421.50;;;15.48;91.30
21730;BME280;11027;51.030;13.812;2023-08-30T06:37:40;99426.53;;;15.51;91.18
21730;BME280;11027;51.030;13.812;2023-08-30T06:40:06;99431.56;;;15.54;91.02
21730;BME280;11027;51.030;13.812;2023-08-30T06:42:32;99431.09;;;15.57;90.98
21730;BME280;11027;51.030;13.812;2023-08-30T06:44:57;99432.78;;;15.58;90.43
21730;BME280;11027;51.030;13.812;2023-08-30T06:47:22;99437.78;;;15.61;90.63
21730;BME280;11027;51.030;13.812;2023-08-30T06:49:48;99439.00;;;15.65;90.61
21730;BME280;11027;51.030;13.812;2023-08-30T06:52:13;99436.41;;;15.70;90.88
21730;BME280;11027;51.030;13.812;2023-08-30T06:54:38;99428.81;;;15.72;90.74
21730;BME280;11027;51.030;13.812;2023-08-30T06:57:04;99432.16;;;15.74;90.52
21730;BME280;11027;51.030;13.812;2023-08-30T06:59:31;99431.22;;;15.80;90.75
21730;BME280;11027;51.030;13.812;2023-08-30T07:01:56;99430.31;;;15.87;90.53
21730;BME280;11027;51.030;13.812;2023-08-30T07:04:21;99436.53;;;15.94;90.48
21730;BME280;11027;51.030;13.812;2023-08-30T07:06:47;99438.69;;;15.92;89.96
21730;BME280;11027;51.030;13.812;2023-08-30T07:09:12;99440.13;;;15.94;89.93
21730;BME280;11027;51.030;13.812;2023-08-30T07:11:38;99437.47;;;15.88;89.56
21730;BME280;11027;51.030;13.812;2023-08-30T07:14:04;99435.34;;;15.90;89.66
21730;BME280;11027;51.030;13.812;2023-08-30T07:16:31;99445.13;;;15.86;88.84
21730;BME280;11027;51.030;13.812;2023-08-30T07:18:57;99448.91;;;15.85;89.00
21730;BME280;11027;51.030;13.812;2023-08-30T07:21:22;99441.78;;;15.84;88.87
21730;BME280;11027;51.030;13.812;2023-08-30T07:23:47;99439.63;;;15.86;88.98
21730;BME280;11027;51.030;13.812;2023-08-30T07:26:13;99440.69;;;15.85;88.82
21730;BME280;11027;51.030;13.812;2023-08-30T07:28:38;99442.50;;;15.91;89.11
21730;BME280;11027;51.030;13.812;2023-08-30T07:31:04;99436.28;;;15.95;88.80
21730;BME280;11027;51.030;13.812;2023-08-30T07:33:29;99435.63;;;16.00;88.75
21730;BME280;11027;51.030;13.812;2023-08-30T07:35:54;99445.66;;;16.06;88.53
21730;BME280;11027;51.030;13.812;2023-08-30T07:38:19;99445.19;;;16.09;88.22
21730;BME280;11027;51.030;13.812;2023-08-30T07:40:45;99448.16;;;16.08;88.17
21730;BME280;11027;51.030;13.812;2023-08-30T07:43:10;99446.38;;;16.13;88.12
21730;BME280;11027;51.030;13.812;2023-08-30T07:45:35;99443.28;;;16.22;88.71
21730;BME280;11027;51.030;13.812;2023-08-30T07:48:00;99442.34;;;16.28;88.32
21730;BME280;11027;51.030;13.812;2023-08-30T07:50:26;99437.84;;;16.33;87.84
21730;BME280;11027;51.030;13.812;2023-08-30T07:52:51;99443.22;;;16.40;87.98
21730;BME280;11027;51.030;13.812;2023-08-30T07:55:16;99449.59;;;16.52;87.79
21730;BME280;11027;51.030;13.812;2023-08-30T07:57:41;99444.81;;;16.59;87.13
21730;BME280;11027;51.030;13.812;2023-08-30T08:00:07;99445.53;;;16.67;86.38
21730;BME280;11027;51.030;13.812;2023-08-30T08:02:33;99451.75;;;16.74;86.27
21730;BME280;11027;51.030;13.812;2023-08-30T08:04:58;99453.34;;;16.82;86.10
21730;BME280;11027;51.030;13.812;2023-08-30T08:07:23;99453.22;;;16.88;85.73
21730;BME280;11027;51.030;13.812;2023-08-30T08:09:49;99452.00;;;16.84;84.39
21730;BME280;11027;51.030;13.812;2023-08-30T08:12:14;99455.97;;;16.76;83.38
21730;BME280;11027;51.030;13.812;2023-08-30T08:14:39;99435.75;;;16.71;83.35
21730;BME280;11027;51.030;13.812;2023-08-30T08:17:05;99445.78;;;16.77;83.52
21730;BME280;11027;51.030;13.812;2023-08-30T08:19:30;99436.44;;;16.78;83.54
21730;BME280;11027;51.030;13.812;2023-08-30T08:21:55;99433.69;;;16.78;83.09
21730;BME280;11027;51.030;13.812;2023-08-30T08:24:21;99437.41;;;16.72;82.66
21730;BME280;11027;51.030;13.812;2023-08-30T08:26:46;99428.53;;;16.70;82.46
21730;BME280;11027;51.030;13.812;2023-08-30T08:29:11;99431.06;;;16.71;82.56
21730;BME280;11027;51.030;13.812;2023-08-30T08:31:37;99419.94;;;16.78;82.50
21730;BME280;11027;51.030;13.812;2023-08-30T08:34:11;99419.50;;;16.81;82.23
21730;BME280;11027;51.030;13.812;2023-08-30T08:36:40;99421.16;;;16.82;82.27
21730;BME280;11027;51.030;13.812;2023-08-30T08:39:06;99408.13;;;16.89;82.18
21730;BME280;11027;51.030;13.812;2023-08-30T08:41:40;99415.88;;;16.92;81.68
21730;BME280;11027;51.030;13.812;2023-08-30T08:44:07;99405.09;;;17.03;82.10
21730;BME280;11027;51.030;13.812;2023-08-30T08:46:34;99404.66;;;17.06;81.04
21730;BME280;11027;51.030;13.812;2023-08-30T08:49:08;99407.41;;;17.06;80.74
21730;BME280;11027;51.030;13.812;2023-08-30T08:51:35;99413.50;;;17.08;80.56
21730;BME280;11027;51.030;13.812;2023-08-30T08:54:03;99406.34;;;17.07;79.84
21730;BME280;11027;51.030;13.812;2023-08-30T08:56:30;99403.69;;;17.12;79.98
21730;BME280;11027;51.030;13.812;2023-08-30T08:58:56;99403.19;;;17.15;79.65
21730;BME280;11027;51.030;13.812;2023-08-30T09:01:22;99405.06;;;17.26;79.85
21730;BME280;11027;51.030;13.812;2023-08-30T09:03:47;99415.22;;;17.37;80.12
21730;BME280;11027;51.030;13.812;2023-08-30T09:06:13;99416.50;;;17.47;79.57
21730;BME280;11027;51.030;13.812;2023-08-30T09:08:40;99420.56;;;17.56;78.68
21730;BME280;11027;51.030;13.812;2023-08-30T09:11:05;99418.53;;;17.51;77.45
21730;BME280;11027;51.030;13.812;2023-08-30T09:13:30;99421.53;;;17.50;76.83
21730;BME280;11027;51.030;13.812;2023-08-30T09:15:56;99416.47;;;17.58;76.64
21730;BME280;11027;51.030;13.812;2023-08-30T09:18:22;99412.69;;;17.76;76.62
21730;BME280;11027;51.030;13.812;2023-08-30T09:20:52;99408.69;;;17.96;76.36
21730;BME280;11027;51.030;13.812;2023-08-30T09:23:19;99404.34;;;18.00;74.21
21730;BME280;11027;51.030;13.812;2023-08-30T09:25:46;99409.16;;;17.93;73.21
21730;BME280;11027;51.030;13.812;2023-08-30T09:28:12;99404.34;;;18.00;73.45
21730;BME280;11027;51.030;13.812;2023-08-30T09:30:38;99401.84;;;18.15;73.82
21730;BME280;11027;51.030;13.812;2023-08-30T09:33:04;99400.72;;;18.28;73.76
21730;BME280;11027;51.030;13.812;2023-08-30T09:35:30;99406.72;;;18.42;73.43
21730;BME280;11027;51.030;13.812;2023-08-30T09:37:56;99407.72;;;18.53;73.16
21730;BME280;11027;51.030;13.812;2023-08-30T09:40:21;99411.03;;;18.72;73.07
21730;BME280;11027;51.030;13.812;2023-08-30T09:42:47;99411.91;;;18.89;72.82
21730;BME280;11027;51.030;13.812;2023-08-30T09:45:22;99408.38;;;18.94;71.75
21730;BME280;11027;51.030;13.812;2023-08-30T09:47:48;99409.94;;;19.07;71.69
21730;BME280;11027;51.030;13.812;2023-08-30T09:50:19;99409.31;;;19.22;71.42
21730;BME280;11027;51.030;13.812;2023-08-30T09:52:49;99408.19;;;19.23;70.13
21730;BME280;11027;51.030;13.812;2023-08-30T09:55:15;99403.59;;;19.28;70.13
21730;BME280;11027;51.030;13.812;2023-08-30T09:57:42;99415.78;;;19.32;70.40
21730;BME280;11027;51.030;13.812;2023-08-30T10:00:08;99406.44;;;19.33;70.28
21730;BME280;11027;51.030;13.812;2023-08-30T10:02:34;99402.38;;;19.41;70.23
21730;BME280;11027;51.030;13.812;2023-08-30T10:04:59;99397.72;;;19.47;70.28
21730;BME280;11027;51.030;13.812;2023-08-30T10:07:25;99389.97;;;19.44;69.98
21730;BME280;11027;51.030;13.812;2023-08-30T10:09:51;99397.16;;;19.45;69.23
21730;BME280;11027;51.030;13.812;2023-08-30T10:12:20;99385.06;;;19.51;69.03
21730;BME280;11027;51.030;13.812;2023-08-30T10:14:45;99390.13;;;19.59;68.98
21730;BME280;11027;51.030;13.812;2023-08-30T10:17:12;99387.50;;;19.69;68.90
21730;BME280;11027;51.030;13.812;2023-08-30T10:19:40;99386.53;;;19.81;68.44
21730;BME280;11027;51.030;13.812;2023-08-30T10:22:06;99384.19;;;19.94;68.20
21730;BME280;11027;51.030;13.812;2023-08-30T10:25:02;99383.38;;;19.94;67.07
21730;BME280;11027;51.030;13.812;2023-08-30T10:27:31;99385.84;;;19.95;66.79
21730;BME280;11027;51.030;13.812;2023-08-30T10:29:59;99387.22;;;19.93;66.79
21730;BME280;11027;51.030;13.812;2023-08-30T10:32:26;99383.06;;;19.90;66.12
21730;BME280;11027;51.030;13.812;2023-08-30T10:34:51;99390.41;;;19.80;66.44
21730;BME280;11027;51.030;13.812;2023-08-30T10:37:22;99389.09;;;19.65;66.75
21730;BME280;11027;51.030;13.812;2023-08-30T10:39:49;99390.78;;;19.66;67.32
21730;BME280;11027;51.030;13.812;2023-08-30T10:42:16;99388.34;;;19.70;67.50
21730;BME280;11027;51.030;13.812;2023-08-30T10:44:59;99400.38;;;19.81;67.56
21730;BME280;11027;51.030;13.812;2023-08-30T10:47:27;99393.56;;;19.93;67.15
21730;BME280;11027;51.030;13.812;2023-08-30T10:49:57;99401.19;;;20.08;66.25
21730;BME280;11027;51.030;13.812;2023-08-30T10:52:24;99401.81;;;20.15;65.24
21730;BME280;11027;51.030;13.812;2023-08-30T10:54:50;99402.25;;;20.02;64.29
21730;BME280;11027;51.030;13.812;2023-08-30T10:57:20;99399.97;;;19.94;64.44
21730;BME280;11027;51.030;13.812;2023-08-30T11:00:05;99403.81;;;19.93;64.63
21730;BME280;11027;51.030;13.812;2023-08-30T11:02:32;99393.38;;;20.00;64.44
21730;BME280;11027;51.030;13.812;2023-08-30T11:04:59;99397.31;;;20.09;64.64
21730;BME280;11027;51.030;13.812;2023-08-30T11:07:27;99394.09;;;20.17;64.65
21730;BME280;11027;51.030;13.812;2023-08-30T11:09:53;99390.84;;;20.26;64.22
21730;BME280;11027;51.030;13.812;2023-08-30T11:12:18;99394.78;;;20.35;63.89
21730;BME280;11027;51.030;13.812;2023-08-30T11:14:47;99389.91;;;20.47;63.90
21730;BME280;11027;51.030;13.812;2023-08-30T11:17:12;99394.47;;;20.58;63.26
21730;BME280;11027;51.030;13.812;2023-08-30T11:19:37;99394.94;;;20.55;62.03
21730;BME280;11027;51.030;13.812;2023-08-30T11:22:03;99391.72;;;20.64;61.83
21730;BME280;11027;51.030;13.812;2023-08-30T11:24:28;99394.56;;;20.74;60.77
21730;BME280;11027;51.030;13.812;2023-08-30T11:26:56;99398.25;;;20.85;59.45
21730;BME280;11027;51.030;13.812;2023-08-30T11:29:22;99387.44;;;20.88;58.31
21730;BME280;11027;51.030;13.812;2023-08-30T11:31:48;99381.41;;;20.91;58.00
21730;BME280;11027;51.030;13.812;2023-08-30T11:34:14;99382.00;;;21.04;58.11
21730;BME280;11027;51.030;13.812;2023-08-30T11:36:39;99381.50;;;21.12;57.90
21730;BME280;11027;51.030;13.812;2023-08-30T11:39:06;99374.88;;;21.18;56.86
21730;BME280;11027;51.030;13.812;2023-08-30T11:41:31;99378.50;;;21.24;56.70
21730;BME280;11027;51.030;13.812;2023-08-30T11:43:58;99368.59;;;21.38;56.98
21730;BME280;11027;51.030;13.812;2023-08-30T11:46:23;99364.81;;;21.49;57.02
21730;BME280;11027;51.030;13.812;2023-08-30T11:48:50;99365.06;;;21.53;56.60
21730;BME280;11027;51.030;13.812;2023-08-30T11:51:17;99365.56;;;21.40;56.09
21730;BME280;11027;51.030;13.812;2023-08-30T11:53:44;99368.88;;;21.42;56.88
21730;BME280;11027;51.030;13.812;2023-08-30T11:56:09;99362.81;;;21.45;57.21
21730;BME280;11027;51.030;13.812;2023-08-30T11:58:35;99356.75;;;21.48;57.38
21730;BME280;11027;51.030;13.812;2023-08-30T12:01:02;99359.50;;;21.43;57.34
21730;BME280;11027;51.030;13.812;2023-08-30T12:03:28;99358.34;;;21.38;57.71
21730;BME280;11027;51.030;13.812;2023-08-30T12:05:54;99355.03;;;21.42;57.68
21730;BME280;11027;51.030;13.812;2023-08-30T12:08:20;99346.72;;;21.42;57.51
21730;BME280;11027;51.030;13.812;2023-08-30T12:10:46;99354.19;;;21.36;57.51
21730;BME280;11027;51.030;13.812;2023-08-30T12:13:21;99348.31;;;21.22;57.14
21730;BME280;11027;51.030;13.812;2023-08-30T12:15:47;99337.78;;;21.24;57.65
21730;BME280;11027;51.030;13.812;2023-08-30T12:18:12;99333.41;;;21.33;57.47
21730;BME280;11027;51.030;13.812;2023-08-30T12:20:38;99332.28;;;21.29;56.38
21730;BME280;11027;51.030;13.812;2023-08-30T12:23:03;99335.53;;;21.16;56.15
21730;BME280;11027;51.030;13.812;2023-08-30T12:25:28;99324.72;;;21.14;56.51
21730;BME280;11027;51.030;13.812;2023-08-30T12:27:56;99330.00;;;21.11;56.26
21730;BME280;11027;51.030;13.812;2023-08-30T12:30:21;99316.47;;;21.20;56.36
21730;BME280;11027;51.030;13.812;2023-08-30T12:32:47;99328.22;;;21.47;56.51
21730;BME280;11027;51.030;13.812;2023-08-30T12:35:12;99310.81;;;21.83;56.08
21730;BME280;11027;51.030;13.812;2023-08-30T12:37:38;99313.06;;;22.06;55.58
21730;BME280;11027;51.030;13.812;2023-08-30T12:40:03;99319.72;;;22.31;53.22